createdAt,value
2023-05-12T00:01:27.393Z,47.55
2023-05-12T00:03:54.645Z,49.47
2023-05-12T00:06:21.988Z,46.20
2023-05-12T00:08:49.126Z,46.10
2023-05-12T00:11:16.188Z,48.67
2023-05-12T00:13:43.233Z,55.08
2023-05-12T00:16:10.604Z,55.33
2023-05-12T00:18:38.156Z,55.72
2023-05-12T00:21:05.679Z,57.97
2023-05-12T00:23:33.467Z,57.92
2023-05-12T00:26:00.723Z,49.15
2023-05-12T00:28:27.770Z,58.95
2023-05-12T00:30:54.897Z,52.03
2023-05-12T00:33:22.057Z,52.88
2023-05-12T00:35:49.291Z,51.13
2023-05-12T00:38:16.559Z,55.47
2023-05-12T00:40:44.324Z,49.45
2023-05-12T00:43:11.633Z,47.60
2023-05-12T00:45:44.535Z,45.70
2023-05-12T00:48:11.885Z,43.33
2023-05-12T00:50:41.814Z,43.40
2023-05-12T00:53:11.567Z,44.38
2023-05-12T00:55:39.073Z,42.45
2023-05-12T00:58:06.400Z,49.72
2023-05-12T01:00:33.603Z,38.63
2023-05-12T01:03:01.199Z,42.00
2023-05-12T01:05:31.147Z,41.17
2023-05-12T01:08:04.290Z,40.42
2023-05-12T01:10:31.695Z,37.92
2023-05-12T01:13:03.101Z,37.25
2023-05-12T01:15:31.948Z,35.88
2023-05-12T01:18:04.505Z,38.58
2023-05-12T01:20:33.311Z,37.78
2023-05-12T01:23:08.450Z,28.63
2023-05-12T01:25:39.921Z,36.05
2023-05-12T01:28:20.955Z,34.17
2023-05-12T01:30:52.369Z,27.90
2023-05-12T01:33:48.441Z,31.92
2023-05-12T01:36:20.914Z,27.88
2023-05-12T01:38:51.198Z,28.42
2023-05-12T01:41:35.196Z,30.08
2023-05-12T01:44:15.649Z,29.75
2023-05-12T01:49:18.846Z,25.85
2023-05-12T01:51:55.812Z,27.67
2023-05-12T01:57:29.329Z,30.85
2023-05-12T02:00:07.454Z,27.88
2023-05-12T02:02:48.803Z,31.70
2023-05-12T02:05:17.937Z,33.13
2023-05-12T02:07:47.890Z,31.85
2023-05-12T02:10:15.258Z,30.52
2023-05-12T02:12:45.266Z,28.77
2023-05-12T02:15:34.007Z,37.47
2023-05-12T02:18:07.766Z,32.60
2023-05-12T02:20:35.579Z,34.03
2023-05-12T02:23:12.005Z,39.00
2023-05-12T02:25:41.499Z,35.10
2023-05-12T02:28:30.042Z,33.65
2023-05-12T02:31:00.372Z,37.10
2023-05-12T02:33:32.125Z,37.65
2023-05-12T02:36:11.147Z,36.88
2023-05-12T02:38:46.942Z,38.50
2023-05-12T02:41:24.076Z,43.45
2023-05-12T02:43:56.803Z,38.83
2023-05-12T02:46:24.358Z,44.85
2023-05-12T02:48:51.520Z,39.50
2023-05-12T02:51:18.623Z,45.33
2023-05-12T02:53:46.210Z,40.65
2023-05-12T02:56:13.248Z,35.67
2023-05-12T02:58:40.388Z,48.28
2023-05-12T03:01:11.261Z,45.85
2023-05-12T03:03:39.169Z,46.75
2023-05-12T03:06:06.718Z,45.55
2023-05-12T03:08:33.870Z,46.63
2023-05-12T03:11:00.932Z,42.95
2023-05-12T03:13:28.023Z,43.85
2023-05-12T03:15:55.750Z,42.67
2023-05-12T03:18:23.000Z,44.67
2023-05-12T03:20:50.502Z,42.92
2023-05-12T03:23:17.520Z,43.35
2023-05-12T03:25:47.855Z,36.58
2023-05-12T03:28:15.330Z,40.13
2023-05-12T03:30:43.229Z,49.75
2023-05-12T03:33:11.213Z,38.13
2023-05-12T03:35:42.987Z,38.05
2023-05-12T03:38:13.484Z,37.97
2023-05-12T03:43:25.408Z,40.78
2023-05-12T03:45:52.671Z,25.48
2023-05-12T03:48:20.012Z,34.20
2023-05-12T03:50:52.518Z,38.47
2023-05-12T03:53:30.514Z,48.20
2023-05-12T03:56:01.329Z,49.28
2023-05-12T03:58:37.982Z,36.28
2023-05-12T04:01:08.105Z,34.25
2023-05-12T04:03:39.216Z,33.83
2023-05-12T04:06:18.214Z,30.55
2023-05-12T04:08:52.627Z,34.80
2023-05-12T04:11:53.509Z,32.58
2023-05-12T04:17:05.592Z,16.35
2023-05-12T04:19:32.550Z,16.92
2023-05-12T04:21:59.603Z,15.73
2023-05-12T04:24:27.649Z,13.07
2023-05-12T04:26:54.718Z,16.55
2023-05-12T04:29:21.711Z,15.90
2023-05-12T04:31:48.797Z,16.73
2023-05-12T04:34:15.808Z,16.10
2023-05-12T04:36:42.877Z,16.73
2023-05-12T04:39:09.958Z,11.63
2023-05-12T04:41:36.932Z,12.63
2023-05-12T04:44:03.964Z,16.60
2023-05-12T04:46:31.044Z,15.20
2023-05-12T04:48:58.134Z,14.23
2023-05-12T04:51:25.254Z,17.77
2023-05-12T04:53:52.285Z,14.38
2023-05-12T04:56:19.370Z,15.15
2023-05-12T04:58:46.392Z,13.80
2023-05-12T05:01:13.689Z,11.82
2023-05-12T05:03:41.176Z,10.98
2023-05-12T05:06:08.881Z,9.82
2023-05-12T05:08:35.874Z,7.63
2023-05-12T05:11:02.951Z,9.20
2023-05-12T05:13:30.032Z,9.20
2023-05-12T05:15:57.131Z,9.10
2023-05-12T05:18:24.665Z,10.77
2023-05-12T05:20:57.674Z,9.85
2023-05-12T05:23:25.771Z,11.68
2023-05-12T05:25:52.904Z,6.45
2023-05-12T05:28:19.930Z,7.85
2023-05-12T05:30:47.130Z,7.80
2023-05-12T05:33:14.195Z,7.40
2023-05-12T05:35:42.432Z,5.60
2023-05-12T05:38:27.370Z,7.43
2023-05-12T05:44:56.984Z,6.50
2023-05-12T05:53:29.223Z,7.25
2023-05-12T05:56:42.326Z,6.72
2023-05-12T06:00:23.761Z,11.13
2023-05-12T06:03:32.823Z,7.97
2023-05-12T06:06:13.666Z,5.07
2023-05-12T06:08:40.995Z,5.32
2023-05-12T06:11:08.040Z,6.25
2023-05-12T06:13:36.758Z,5.72
2023-05-12T06:16:04.103Z,6.93
2023-05-12T06:18:33.733Z,5.05
2023-05-12T06:21:01.192Z,7.88
2023-05-12T06:23:28.255Z,5.75
2023-05-12T06:25:55.304Z,7.35
2023-05-12T06:28:22.508Z,7.20
2023-05-12T06:30:49.519Z,7.13
2023-05-12T06:33:16.530Z,4.05
2023-05-12T06:35:43.524Z,5.35
2023-05-12T06:38:10.727Z,3.33
2023-05-12T06:40:37.878Z,2.58
2023-05-12T06:43:04.915Z,2.88
2023-05-12T06:45:31.907Z,5.88
2023-05-12T06:47:58.976Z,2.88
2023-05-12T06:50:26.097Z,9.98
2023-05-12T06:52:53.451Z,2.30
2023-05-12T06:55:21.113Z,5.05
2023-05-12T06:58:13.642Z,3.88
2023-05-12T07:03:32.727Z,2.30
2023-05-12T07:05:59.972Z,3.40
2023-05-12T07:14:04.995Z,1.23
2023-05-12T07:16:33.600Z,1.73
2023-05-12T07:19:01.631Z,4.68
2023-05-12T07:32:28.619Z,3.40
2023-05-12T07:34:57.372Z,3.95
2023-05-12T07:37:27.695Z,4.28
2023-05-12T07:39:55.469Z,4.88
2023-05-12T07:42:23.712Z,6.47
2023-05-12T07:44:51.114Z,3.72
2023-05-12T07:47:22.912Z,2.70
2023-05-12T07:49:50.845Z,6.68
2023-05-12T07:52:18.263Z,5.93
2023-05-12T07:54:46.548Z,4.50
2023-05-12T07:57:13.977Z,3.45
2023-05-12T07:59:42.888Z,4.45
2023-05-12T08:02:13.184Z,5.00
2023-05-12T08:07:12.739Z,4.25
2023-05-12T08:09:39.868Z,4.88
2023-05-12T08:12:08.417Z,4.18
2023-05-12T08:14:42.724Z,2.85
2023-05-12T08:17:10.732Z,4.47
2023-05-12T08:22:24.004Z,7.60
2023-05-12T08:24:58.729Z,5.10
2023-05-12T08:35:25.879Z,7.30
2023-05-12T08:37:56.974Z,3.72
2023-05-12T08:40:28.329Z,4.93
2023-05-12T08:43:00.454Z,3.67
2023-05-12T08:45:29.216Z,8.65
2023-05-12T08:47:57.293Z,4.22
2023-05-12T08:50:25.058Z,4.40
2023-05-12T08:52:52.520Z,2.45
2023-05-12T08:55:20.428Z,4.63
2023-05-12T08:57:48.890Z,3.85
2023-05-12T09:00:16.833Z,3.15
2023-05-12T09:02:52.270Z,3.47
2023-05-12T09:05:21.764Z,4.68
2023-05-12T09:07:49.636Z,3.13
2023-05-12T09:10:32.922Z,3.75
2023-05-12T09:13:24.094Z,2.28
2023-05-12T09:15:53.720Z,2.80
2023-05-12T09:18:21.013Z,2.92
2023-05-12T09:23:29.974Z,3.50
2023-05-12T09:26:01.994Z,2.83
2023-05-12T09:28:38.627Z,3.70
2023-05-12T09:37:15.368Z,3.08
2023-05-12T09:42:24.523Z,4.68
2023-05-12T09:47:40.142Z,9.05
2023-05-12T09:50:07.980Z,6.07
2023-05-12T09:52:40.052Z,4.00
2023-05-12T09:55:25.327Z,7.22
2023-05-12T09:57:53.553Z,3.67
2023-05-12T10:00:33.183Z,8.45
2023-05-12T10:03:18.883Z,6.50
2023-05-12T10:05:59.737Z,3.75
2023-05-12T10:08:48.137Z,4.97
2023-05-12T10:11:16.834Z,5.78
2023-05-12T10:16:33.733Z,5.13
2023-05-12T10:19:02.483Z,2.65
2023-05-12T10:21:29.611Z,7.13
2023-05-12T10:23:57.970Z,4.35
2023-05-12T10:26:25.653Z,6.60
2023-05-12T10:28:53.277Z,6.30
2023-05-12T10:31:22.356Z,7.93
2023-05-12T10:33:56.760Z,4.63
2023-05-12T10:36:24.828Z,9.32
2023-05-12T10:38:51.952Z,4.80
2023-05-12T10:41:29.657Z,4.47
2023-05-12T10:43:58.045Z,4.68
2023-05-12T10:46:26.629Z,7.18
2023-05-12T10:48:54.942Z,3.83
2023-05-12T10:51:36.220Z,5.80
2023-05-12T10:54:07.473Z,4.70
2023-05-12T10:56:38.333Z,3.90
2023-05-12T10:59:12.799Z,3.67
2023-05-12T11:01:41.895Z,4.22
2023-05-12T11:04:10.652Z,7.15
2023-05-12T11:06:39.185Z,8.18
2023-05-12T11:09:09.001Z,2.85
2023-05-12T11:11:36.555Z,8.75
2023-05-12T11:14:03.672Z,5.65
2023-05-12T11:16:30.760Z,3.80
2023-05-12T11:19:01.902Z,7.15
2023-05-12T11:21:30.809Z,4.82
2023-05-12T11:24:02.985Z,4.95
2023-05-12T11:26:30.710Z,5.03
2023-05-12T11:29:07.290Z,9.27
2023-05-12T11:31:36.515Z,5.53
2023-05-12T11:34:14.370Z,4.22
2023-05-12T11:36:47.776Z,3.92
2023-05-12T11:39:16.953Z,4.40
2023-05-12T11:41:45.165Z,3.83
2023-05-12T11:44:19.591Z,12.40
2023-05-12T11:54:52.577Z,4.82
2023-05-12T11:57:29.716Z,3.83
2023-05-12T11:59:58.604Z,4.72
2023-05-12T12:05:06.466Z,6.30
2023-05-12T12:07:36.573Z,9.30
2023-05-12T12:10:13.190Z,5.05
2023-05-12T12:12:40.962Z,5.78
2023-05-12T12:15:08.823Z,5.72
2023-05-12T12:17:37.008Z,4.75
2023-05-12T12:20:05.072Z,4.65
2023-05-12T12:22:35.288Z,3.88
2023-05-12T12:27:30.463Z,8.30
2023-05-12T12:29:57.769Z,6.65
2023-05-12T12:32:25.291Z,4.20
2023-05-12T12:34:53.583Z,6.15
2023-05-12T12:37:32.600Z,3.42
2023-05-12T12:40:07.574Z,6.20
2023-05-12T12:42:36.856Z,4.95
2023-05-12T12:45:06.448Z,3.23
2023-05-12T12:47:35.094Z,6.03
2023-05-12T12:50:02.599Z,3.30
2023-05-12T12:52:34.355Z,4.35
2023-05-12T12:55:02.856Z,5.20
2023-05-12T12:57:44.113Z,5.82
2023-05-12T13:00:12.306Z,6.68
2023-05-12T13:02:39.958Z,3.80
2023-05-12T13:05:08.281Z,6.53
2023-05-12T13:07:37.243Z,5.78
2023-05-12T13:10:05.822Z,5.35
2023-05-12T13:12:33.857Z,4.53
2023-05-12T13:15:03.460Z,3.67
2023-05-12T13:17:32.511Z,3.72
2023-05-12T13:19:59.928Z,5.38
2023-05-12T13:22:30.318Z,4.85
2023-05-12T13:24:57.610Z,4.25
2023-05-12T13:27:24.750Z,4.50
2023-05-12T13:29:51.934Z,4.45
2023-05-12T13:32:21.182Z,4.38
2023-05-12T13:34:48.465Z,5.78
2023-05-12T13:37:15.981Z,2.97
2023-05-12T13:39:43.250Z,4.25
2023-05-12T13:42:10.399Z,4.13
2023-05-12T13:44:38.173Z,5.05
2023-05-12T13:49:58.364Z,4.80
2023-05-12T13:52:26.447Z,5.28
2023-05-12T13:54:54.122Z,3.50
2023-05-12T13:57:23.305Z,6.57
2023-05-12T13:59:54.276Z,9.48
2023-05-12T14:02:22.451Z,6.10
2023-05-12T14:04:50.471Z,6.38
2023-05-12T14:07:19.395Z,4.60
2023-05-12T14:09:48.973Z,6.45
2023-05-12T14:12:17.242Z,4.72
2023-05-12T14:14:50.640Z,3.28
2023-05-12T14:17:21.508Z,4.55
2023-05-12T14:19:53.161Z,5.47
2023-05-12T14:27:46.533Z,3.15
2023-05-12T14:30:13.982Z,5.30
2023-05-12T14:32:41.273Z,3.60
2023-05-12T14:35:10.779Z,5.65
2023-05-12T14:37:38.647Z,6.75
2023-05-12T14:40:06.288Z,5.25
2023-05-12T14:42:35.171Z,3.40
2023-05-12T14:45:03.684Z,6.05
2023-05-12T14:49:56.837Z,4.82
2023-05-12T14:52:24.099Z,4.75
2023-05-12T14:54:51.171Z,3.42
2023-05-12T14:57:18.199Z,6.45
2023-05-12T14:59:45.184Z,5.35
2023-05-12T15:02:16.603Z,4.75
2023-05-12T15:04:45.650Z,6.35
2023-05-12T15:07:15.474Z,4.57
2023-05-12T15:09:43.846Z,4.45
2023-05-12T15:12:12.880Z,8.43
2023-05-12T15:14:46.250Z,5.30
2023-05-12T15:17:15.121Z,4.50
2023-05-12T15:22:22.356Z,9.48
2023-05-12T15:24:50.205Z,4.13
2023-05-12T15:27:18.302Z,6.60
2023-05-12T15:29:45.724Z,5.05
2023-05-12T15:32:12.990Z,5.07
2023-05-12T15:34:40.232Z,9.80
2023-05-12T15:37:07.443Z,3.55
2023-05-12T15:39:34.924Z,7.55
2023-05-12T15:58:17.129Z,5.10
2023-05-12T16:00:44.419Z,5.38
2023-05-12T16:03:19.984Z,4.32
2023-05-12T16:05:47.445Z,3.47
2023-05-12T16:08:14.652Z,2.95
2023-05-12T16:10:41.753Z,4.28
2023-05-12T16:13:09.022Z,3.78
2023-05-12T16:15:36.341Z,3.88
2023-05-12T16:18:03.714Z,4.00
2023-05-12T16:20:30.918Z,2.90
2023-05-12T16:23:05.556Z,3.53
2023-05-12T16:30:56.707Z,4.20
2023-05-12T16:36:08.131Z,3.63
2023-05-12T16:38:36.051Z,4.05
2023-05-12T16:41:03.746Z,4.38
2023-05-12T16:46:21.042Z,4.63
2023-05-12T16:51:35.603Z,6.72
2023-05-12T16:54:03.053Z,3.83
2023-05-12T16:56:30.676Z,2.67
2023-05-12T16:58:59.747Z,3.53
2023-05-12T17:01:33.766Z,3.50
2023-05-12T17:04:02.531Z,3.03
2023-05-12T17:09:07.236Z,4.35
2023-05-12T17:11:37.680Z,3.25
2023-05-12T17:14:11.032Z,3.83
2023-05-12T17:16:42.434Z,2.17
2023-05-12T17:19:14.423Z,3.25
2023-05-12T17:21:43.005Z,3.80
2023-05-12T17:24:10.326Z,6.65
2023-05-12T17:26:37.977Z,3.45
2023-05-12T17:29:05.304Z,4.72
2023-05-12T17:31:32.461Z,4.78
2023-05-12T17:33:59.790Z,8.57
2023-05-12T17:36:26.878Z,3.50
2023-05-12T17:38:54.415Z,3.85
2023-05-12T17:41:21.610Z,5.22
2023-05-12T17:43:48.864Z,4.43
2023-05-12T17:46:16.324Z,6.18
2023-05-12T17:48:44.501Z,4.07
2023-05-12T17:51:11.722Z,5.85
2023-05-12T17:53:39.517Z,8.00
2023-05-12T17:56:06.792Z,6.70
2023-05-12T17:58:33.909Z,3.88
2023-05-12T18:01:01.074Z,3.92
2023-05-12T18:03:28.496Z,4.30
2023-05-12T18:05:55.767Z,4.65
2023-05-12T18:08:22.908Z,3.97
2023-05-12T18:10:50.100Z,4.93
2023-05-12T18:13:17.293Z,4.47
2023-05-12T18:15:44.460Z,4.07
2023-05-12T18:18:11.979Z,5.13
2023-05-12T18:20:39.164Z,5.25
2023-05-12T18:23:06.353Z,5.10
2023-05-12T18:25:33.442Z,4.20
2023-05-12T18:28:00.620Z,5.25
2023-05-12T18:30:27.679Z,4.72
2023-05-12T18:32:54.805Z,4.82
2023-05-12T18:35:22.216Z,5.95
2023-05-12T18:37:49.643Z,7.22
2023-05-12T18:40:17.062Z,5.22
2023-05-12T18:42:44.321Z,5.15
2023-05-12T18:45:11.939Z,6.80
2023-05-12T18:47:39.549Z,7.10
2023-05-12T18:50:07.597Z,6.53
2023-05-12T18:52:34.854Z,6.72
2023-05-12T18:55:02.002Z,6.57
2023-05-12T18:57:29.189Z,7.35
2023-05-12T18:59:56.315Z,4.88
2023-05-12T19:02:23.482Z,13.75
2023-05-12T19:04:50.866Z,5.88
2023-05-12T19:07:19.634Z,6.68
2023-05-12T19:09:47.184Z,4.25
2023-05-12T19:12:14.607Z,7.72
2023-05-12T19:14:43.041Z,5.68
2023-05-12T19:17:10.398Z,7.97
2023-05-12T19:19:38.234Z,6.78
2023-05-12T19:22:05.553Z,8.45
2023-05-12T19:24:33.021Z,5.32
2023-05-12T19:27:00.288Z,5.68
2023-05-12T19:29:27.619Z,12.60
2023-05-12T19:31:55.005Z,8.93
2023-05-12T19:34:22.499Z,14.57
2023-05-12T19:36:49.599Z,9.13
2023-05-12T19:39:17.049Z,7.60
2023-05-12T19:41:44.301Z,10.00
2023-05-12T19:44:11.454Z,8.48
2023-05-12T19:46:38.702Z,10.85
2023-05-12T19:49:06.258Z,8.75
2023-05-12T19:51:33.474Z,7.72
2023-05-12T19:54:01.944Z,7.30
2023-05-12T19:56:29.959Z,11.02
2023-05-12T19:58:57.137Z,9.30
2023-05-12T20:01:24.525Z,7.43
2023-05-12T20:03:52.951Z,8.90
2023-05-12T20:06:26.333Z,9.30
2023-05-12T20:11:33.841Z,7.05
2023-05-12T20:14:01.305Z,7.72
2023-05-12T20:16:28.506Z,10.07
2023-05-12T20:18:55.716Z,9.52
2023-05-12T20:21:22.843Z,8.85
2023-05-12T20:23:49.997Z,9.50
2023-05-12T20:26:17.075Z,10.40
2023-05-12T20:28:44.298Z,8.88
2023-05-12T20:31:11.486Z,7.85
2023-05-12T20:33:39.052Z,9.98
2023-05-12T20:36:06.362Z,10.60
2023-05-12T20:38:33.485Z,11.25
2023-05-12T20:41:07.536Z,8.55
2023-05-12T20:43:35.093Z,18.42
2023-05-12T20:46:07.517Z,18.00
2023-05-12T20:48:34.811Z,11.68
2023-05-12T20:51:10.535Z,8.80
2023-05-12T20:53:37.692Z,12.45
2023-05-12T20:56:04.868Z,9.45
2023-05-12T20:58:32.047Z,12.50
2023-05-12T21:00:59.184Z,12.73
2023-05-12T21:03:27.395Z,12.88
2023-05-12T21:05:54.606Z,15.55
2023-05-12T21:08:21.744Z,24.05
2023-05-12T21:10:49.099Z,37.15
2023-05-12T21:13:16.267Z,39.33
2023-05-12T21:15:43.339Z,28.42
2023-05-12T21:18:10.753Z,36.20
2023-05-12T21:20:37.877Z,27.08
2023-05-12T21:23:05.033Z,38.28
2023-05-12T21:25:32.218Z,43.28
2023-05-12T21:27:59.391Z,46.42
2023-05-12T21:30:26.520Z,59.85
2023-05-12T21:32:53.716Z,47.22
2023-05-12T21:35:20.872Z,57.97
2023-05-12T21:40:18.841Z,49.47
2023-05-12T21:42:46.086Z,48.25
2023-05-12T21:45:13.194Z,53.15
2023-05-12T21:47:40.336Z,38.10
2023-05-12T21:50:07.593Z,35.00
2023-05-12T21:52:34.873Z,34.70
2023-05-12T21:55:04.723Z,38.38
2023-05-12T21:57:32.176Z,29.17
2023-05-12T22:00:03.854Z,23.55
2023-05-12T22:02:31.383Z,26.25
2023-05-12T22:04:58.543Z,21.45
2023-05-12T22:07:26.104Z,18.10
2023-05-12T22:09:53.458Z,15.75
2023-05-12T22:12:21.964Z,11.95
2023-05-12T22:14:49.218Z,11.35
2023-05-12T22:17:16.844Z,10.57
2023-05-12T22:19:44.409Z,11.20
2023-05-12T22:22:11.556Z,9.73
2023-05-12T22:24:38.703Z,11.95
2023-05-12T22:27:05.945Z,9.75
2023-05-12T22:29:33.120Z,12.10
2023-05-12T22:32:00.909Z,10.18
2023-05-12T22:34:28.222Z,12.98
2023-05-12T22:36:55.431Z,16.45
2023-05-12T22:39:22.735Z,18.75
2023-05-12T22:41:49.859Z,21.27
2023-05-12T22:44:16.917Z,20.08
2023-05-12T22:46:44.097Z,16.55
2023-05-12T22:49:11.184Z,18.08
2023-05-12T22:51:38.451Z,17.67
2023-05-12T22:54:05.622Z,17.00
2023-05-12T22:56:32.763Z,12.23
2023-05-12T22:58:59.897Z,13.02
2023-05-12T23:01:27.083Z,15.15
2023-05-12T23:03:54.190Z,10.45
2023-05-12T23:06:21.349Z,18.40
2023-05-12T23:08:49.144Z,21.20
2023-05-12T23:11:16.282Z,17.80
2023-05-12T23:13:43.503Z,18.85
2023-05-12T23:16:10.579Z,17.65
2023-05-12T23:18:37.786Z,15.15
2023-05-12T23:21:05.115Z,15.73
2023-05-12T23:23:33.033Z,17.27
2023-05-12T23:26:00.165Z,19.42
2023-05-12T23:28:27.230Z,17.48
2023-05-12T23:30:54.384Z,17.52
2023-05-12T23:33:21.547Z,20.83
2023-05-12T23:35:48.999Z,15.80
2023-05-12T23:38:16.348Z,15.70
2023-05-12T23:40:43.759Z,18.15
2023-05-12T23:43:10.803Z,18.10
2023-05-12T23:45:37.895Z,18.48
2023-05-12T23:48:05.302Z,17.20
2023-05-12T23:50:32.499Z,16.85
2023-05-12T23:53:00.188Z,16.13
2023-05-12T23:55:27.515Z,15.27
2023-05-12T23:57:54.916Z,16.20
